Flight Information

DEPARTURE
SACRAMENTO, CA
Elevation:
23
Runways:
H1 - 60x60 - ASPH-G
2/20 - 5503x150 - ASPH-G
12/30 - 3837x100 - ASPH-G
Active PE Departure:
20 - 30
Current PE ATIS:
T
Altimeter:
30.02
Remarks:
ATIS:
125.5 916-428-7066
Ground:
125
Tower:
EXECUTIVE TOWER 119.5
DESTINATION
,
Elevation:
TPA:
1000 (est.)


6847.4 NM69° True-16° Var53° HDG

Flight Plan:
(click to file on line)

1. Type
2. Aircraft Identification
3. Aircraft Type / Special Equipment
4. True Airspeed
kts
5. Departure Airport
(ICAO code)
6. Arriving Airport
(ICAO code)
7. Cruising Altitude
ft
8. Alternate Airport
(ICAO code)
9. Route of Flight
10. Remarks


00:00:00 Departure ATIS: Destination ATIS:

Clearance Limit:
Route:
Altitude: Expect in minutes
Frequency:
Transponder: (7500 Hijack / 7600 Lost Comms / 7700 Emergency)


KSAC 100553Z AUTO 13004KT OVC044 11/08 A3002 RMK AO2 SLP165 T01060078 10111 20094 58013
Time: 2022-12-10T05:53:00Z
1670653793
Winds: 130 @ 4 kts
Visibility: sm
Clouds (AGL): OVC 4400
Temperature: 10.6 C
Dew Point: 7.8 C
Pressure: 30.02067 in Hgbr


Notes:

Data extracted from FAA Digital Chart Supplement. Effective: 0901Z Thursday, 27 JAN 2022 to 0900z Thursday, 24 MAR 2022
Current ATIS data is provided courtisy of PilotEdge.